Time;durP1;ratioP1;P1;durP2;ratioP2;P2;SDS_P1;SDS_P2;PMS_P1;PMS_P2;Temp;Humidity;BMP_temperature;BMP_pressure;BME280_temperature;BME280_humidity;BME280_pressure;Samples;Min_cycle;Max_cycle;Signal;HPM_P1;HPM_P2
2021/09/07 00:00:15;;;;;;;23.35;16.23;;;13.80;99.90;;;;;;5042199;28;20021;-46
2021/09/07 00:02:41;;;;;;;18.33;14.52;;;13.80;99.90;;;;;;5025354;28;20024;-48
2021/09/07 00:05:09;;;;;;;19.80;14.98;;;13.80;99.90;;;;;;5042666;28;20467;-46
2021/09/07 00:07:34;;;;;;;20.77;16.05;;;13.80;99.90;;;;;;5043285;28;20037;-47
2021/09/07 00:10:00;;;;;;;19.73;15.45;;;13.80;99.90;;;;;;5041547;28;20027;-49
2021/09/07 00:12:26;;;;;;;17.70;14.63;;;13.80;99.90;;;;;;5043094;28;20060;-52
2021/09/07 00:14:51;;;;;;;22.20;14.43;;;13.80;99.90;;;;;;5042421;28;20120;-46
2021/09/07 00:17:17;;;;;;;17.98;15.52;;;13.80;99.90;;;;;;5042894;28;20042;-47
2021/09/07 00:19:43;;;;;;;17.77;13.75;;;13.80;99.90;;;;;;5024975;28;20025;-52
2021/09/07 00:22:08;;;;;;;19.33;13.88;;;13.80;99.90;;;;;;5042807;28;20108;-49
2021/09/07 00:24:34;;;;;;;19.30;14.68;;;13.90;99.90;;;;;;5042384;28;20025;-52
2021/09/07 00:27:00;;;;;;;17.80;13.90;;;13.90;99.90;;;;;;5041937;28;20033;-52
2021/09/07 00:29:26;;;;;;;16.77;13.02;;;13.90;99.90;;;;;;5043378;28;20036;-49
2021/09/07 00:31:52;;;;;;;20.20;14.70;;;13.80;99.90;;;;;;5025238;28;20029;-50
2021/09/07 00:34:18;;;;;;;18.02;13.88;;;13.80;99.90;;;;;;5039411;28;20030;-48
2021/09/07 00:36:43;;;;;;;18.58;15.18;;;13.80;99.90;;;;;;5042707;28;20021;-49
2021/09/07 00:39:13;;;;;;;18.23;14.93;;;13.80;99.90;;;;;;5040599;28;20032;-48
2021/09/07 00:41:40;;;;;;;17.25;14.30;;;13.80;99.90;;;;;;5044300;28;20051;-50
2021/09/07 00:44:18;;;;;;;17.35;14.23;;;13.80;99.90;;;;;;5037833;28;20029;-47
2021/09/07 00:46:49;;;;;;;18.85;14.05;;;13.80;99.90;;;;;;5040232;28;20112;-50
2021/09/07 00:49:15;;;;;;;19.30;14.38;;;13.80;99.90;;;;;;5022074;28;20068;-50
2021/09/07 00:51:42;;;;;;;19.98;14.98;;;13.80;99.90;;;;;;5020254;28;20424;-54
2021/09/07 00:54:08;;;;;;;18.55;13.75;;;13.80;99.90;;;;;;5032391;28;20042;-49
2021/09/07 00:56:35;;;;;;;19.33;13.55;;;13.80;99.90;;;;;;5024597;28;20033;-51
2021/09/07 00:59:02;;;;;;;23.35;15.70;;;13.80;99.90;;;;;;5036259;28;20025;-47
2021/09/07 01:01:28;;;;;;;18.90;14.48;;;13.70;99.90;;;;;;5020717;28;20037;-48
2021/09/07 01:03:54;;;;;;;19.52;14.25;;;13.70;99.90;;;;;;5035259;28;20033;-49
2021/09/07 01:06:19;;;;;;;18.35;13.93;;;13.70;99.90;;;;;;5043723;28;20038;-50
2021/09/07 01:08:46;;;;;;;18.90;14.93;;;13.70;99.90;;;;;;5038299;28;20556;-50
2021/09/07 01:11:14;;;;;;;16.17;13.10;;;13.60;99.90;;;;;;5027848;28;20023;-49
2021/09/07 01:13:39;;;;;;;21.70;15.88;;;13.60;99.90;;;;;;5037756;28;20109;-47
2021/09/07 01:16:05;;;;;;;18.10;14.77;;;13.60;99.90;;;;;;5039440;28;20113;-46
2021/09/07 01:18:30;;;;;;;18.50;14.07;;;13.60;99.90;;;;;;5042774;28;20092;-48
2021/09/07 01:20:56;;;;;;;20.40;14.68;;;13.50;99.90;;;;;;5037465;28;20100;-47
2021/09/07 01:23:22;;;;;;;19.55;14.70;;;13.50;99.90;;;;;;5044882;28;20033;-49
2021/09/07 01:25:47;;;;;;;20.40;16.30;;;13.50;99.90;;;;;;5037317;28;20112;-49
2021/09/07 01:28:15;;;;;;;19.77;13.27;;;13.50;99.90;;;;;;5039202;28;20476;-49
2021/09/07 01:30:42;;;;;;;16.98;13.98;;;13.50;99.90;;;;;;5040620;28;20071;-49
2021/09/07 01:33:07;;;;;;;17.30;13.90;;;13.50;99.90;;;;;;5039738;28;20022;-46
2021/09/07 01:35:33;;;;;;;16.85;14.02;;;13.50;99.90;;;;;;5024277;28;20022;-47
2021/09/07 01:37:58;;;;;;;20.45;16.08;;;13.40;99.90;;;;;;5037967;28;20057;-53
2021/09/07 01:40:24;;;;;;;17.17;14.48;;;13.40;99.90;;;;;;5044889;28;20079;-47
2021/09/07 01:42:50;;;;;;;20.13;15.35;;;13.40;99.90;;;;;;5019731;28;20021;-47
2021/09/07 01:45:15;;;;;;;16.90;13.38;;;13.30;99.90;;;;;;5040270;28;20032;-47
2021/09/07 01:47:41;;;;;;;17.77;13.35;;;13.30;99.90;;;;;;5040069;28;20079;-47
2021/09/07 01:50:08;;;;;;;19.15;16.20;;;13.30;99.90;;;;;;5038151;28;20020;-49
2021/09/07 01:52:34;;;;;;;16.48;14.05;;;13.20;99.90;;;;;;5023460;28;20026;-49
2021/09/07 01:54:59;;;;;;;17.88;14.48;;;13.20;99.90;;;;;;5038240;28;20018;-51
2021/09/07 01:57:25;;;;;;;17.40;13.90;;;13.20;99.90;;;;;;5044342;28;20041;-50
2021/09/07 01:59:50;;;;;;;17.75;14.20;;;13.10;99.90;;;;;;5037205;28;20017;-47
2021/09/07 02:02:16;;;;;;;18.77;14.80;;;13.10;99.90;;;;;;5040313;28;20546;-50
2021/09/07 02:04:45;;;;;;;17.70;13.10;;;13.10;99.90;;;;;;5040115;28;20040;-49
2021/09/07 02:07:11;;;;;;;15.85;13.68;;;13.00;99.90;;;;;;5039384;28;20432;-50
2021/09/07 02:09:36;;;;;;;19.73;14.27;;;13.00;99.90;;;;;;5042691;28;20164;-51
2021/09/07 02:12:02;;;;;;;20.00;14.00;;;13.00;99.90;;;;;;5038415;28;20373;-50
2021/09/07 02:14:29;;;;;;;17.77;14.20;;;12.90;99.90;;;;;;5040532;28;20031;-51
2021/09/07 02:16:54;;;;;;;17.10;14.15;;;12.90;99.90;;;;;;5037798;28;20014;-47
2021/09/07 02:19:20;;;;;;;16.48;14.02;;;12.90;99.90;;;;;;5025166;28;20025;-53
2021/09/07 02:21:46;;;;;;;17.88;13.82;;;12.90;99.90;;;;;;5040109;28;20104;-52
2021/09/07 02:24:13;;;;;;;19.48;15.43;;;12.80;99.90;;;;;;5039132;28;20469;-46
2021/09/07 02:26:39;;;;;;;17.92;14.23;;;12.80;99.90;;;;;;5041394;28;20099;-47
2021/09/07 02:29:05;;;;;;;20.95;15.23;;;12.70;99.90;;;;;;5037129;28;20431;-50
2021/09/07 02:31:30;;;;;;;18.15;14.50;;;12.70;99.90;;;;;;5040321;28;20560;-51
2021/09/07 02:33:56;;;;;;;16.40;12.63;;;12.70;99.90;;;;;;5037824;28;20534;-52
2021/09/07 02:36:23;;;;;;;18.70;13.75;;;12.70;99.90;;;;;;5022032;28;20088;-51
2021/09/07 02:38:49;;;;;;;17.88;14.48;;;12.60;99.90;;;;;;5021782;28;20136;-48
2021/09/07 02:41:15;;;;;;;17.65;13.70;;;12.60;99.90;;;;;;5039339;28;20121;-49
2021/09/07 02:43:41;;;;;;;17.15;13.23;;;12.50;99.90;;;;;;5041385;28;20025;-49
2021/09/07 02:46:06;;;;;;;21.70;17.02;;;12.50;99.90;;;;;;5038314;28;20495;-51
2021/09/07 02:48:32;;;;;;;20.02;16.20;;;12.50;99.90;;;;;;5039808;28;20048;-49
2021/09/07 02:50:57;;;;;;;20.80;15.45;;;12.50;99.90;;;;;;5037849;28;20369;-47
2021/09/07 02:53:23;;;;;;;18.65;16.48;;;12.40;99.90;;;;;;5039586;28;20028;-50
2021/09/07 02:55:49;;;;;;;18.08;14.98;;;12.40;99.90;;;;;;5039548;28;20112;-49
2021/09/07 02:58:14;;;;;;;15.75;13.25;;;12.30;99.90;;;;;;5039661;28;21246;-48
2021/09/07 03:00:40;;;;;;;19.77;15.55;;;12.30;99.90;;;;;;5041738;28;20500;-52
2021/09/07 03:03:05;;;;;;;18.70;15.38;;;12.30;99.90;;;;;;5037096;28;20042;-47
2021/09/07 03:05:31;;;;;;;19.10;14.70;;;12.20;99.90;;;;;;5039592;28;20503;-52
2021/09/07 03:07:56;;;;;;;19.38;15.48;;;12.20;99.90;;;;;;5039539;28;20024;-47
2021/09/07 03:10:22;;;;;;;15.65;12.18;;;12.20;99.90;;;;;;5039752;28;20122;-51
2021/09/07 03:12:49;;;;;;;17.42;13.88;;;12.10;99.90;;;;;;5039652;28;20035;-47
2021/09/07 03:15:15;;;;;;;22.35;16.38;;;12.10;99.90;;;;;;5037679;28;20022;-50
2021/09/07 03:17:40;;;;;;;16.10;13.48;;;12.10;99.90;;;;;;5039798;28;20037;-53
2021/09/07 03:20:06;;;;;;;18.52;15.25;;;12.00;99.90;;;;;;5038779;28;20539;-48
2021/09/07 03:22:33;;;;;;;15.80;13.20;;;12.00;99.90;;;;;;5039814;28;20427;-46
2021/09/07 03:24:58;;;;;;;19.35;14.02;;;12.00;99.90;;;;;;5039302;28;20480;-47
2021/09/07 03:27:24;;;;;;;16.17;13.63;;;12.00;99.90;;;;;;5022574;28;20086;-48
2021/09/07 03:29:49;;;;;;;17.08;13.70;;;12.00;99.90;;;;;;5024940;28;20032;-46
2021/09/07 03:32:15;;;;;;;16.92;13.85;;;12.00;99.90;;;;;;5041936;28;20033;-49
2021/09/07 03:34:40;;;;;;;17.65;14.93;;;11.90;99.90;;;;;;5043442;28;20041;-46
2021/09/07 03:37:06;;;;;;;17.67;15.80;;;11.90;99.90;;;;;;5042715;28;20087;-46
2021/09/07 03:39:31;;;;;;;17.92;14.02;;;11.80;99.90;;;;;;5043812;28;20104;-51
2021/09/07 03:41:57;;;;;;;17.67;12.70;;;11.80;99.90;;;;;;5043078;28;20097;-47
2021/09/07 03:44:23;;;;;;;17.17;14.07;;;11.80;99.90;;;;;;5043307;28;20426;-50
2021/09/07 03:46:48;;;;;;;16.38;13.40;;;11.80;99.90;;;;;;5025759;28;20025;-51
2021/09/07 03:49:15;;;;;;;17.73;13.85;;;11.80;99.90;;;;;;5041588;28;20021;-49
2021/09/07 03:51:40;;;;;;;19.33;13.50;;;11.70;99.90;;;;;;5043274;28;20128;-46
2021/09/07 03:54:06;;;;;;;18.30;13.55;;;11.70;99.90;;;;;;5042263;28;20096;-46
2021/09/07 03:56:31;;;;;;;21.05;15.38;;;11.70;99.90;;;;;;5042956;28;20028;-51
2021/09/07 03:58:57;;;;;;;18.45;14.25;;;11.70;99.90;;;;;;5043034;28;20033;-46
2021/09/07 04:01:22;;;;;;;19.13;13.27;;;11.70;99.90;;;;;;5006246;28;20061;-51
2021/09/07 04:03:48;;;;;;;19.98;14.52;;;11.70;99.90;;;;;;5045245;28;20085;-46
2021/09/07 04:06:13;;;;;;;17.00;12.95;;;11.60;99.90;;;;;;5040126;28;20086;-46
2021/09/07 04:08:39;;;;;;;15.30;12.20;;;11.60;99.90;;;;;;5044905;28;20029;-50
2021/09/07 04:11:05;;;;;;;18.73;14.50;;;11.60;99.90;;;;;;5041718;28;20056;-48
2021/09/07 04:13:30;;;;;;;18.13;15.35;;;11.50;99.90;;;;;;5039267;28;20032;-46
2021/09/07 04:15:56;;;;;;;18.33;14.23;;;11.60;99.90;;;;;;5045374;28;20025;-48
2021/09/07 04:18:21;;;;;;;17.73;13.93;;;11.50;99.90;;;;;;5039154;28;20534;-50
2021/09/07 04:20:47;;;;;;;18.10;14.00;;;11.50;99.90;;;;;;5044818;28;20116;-47
2021/09/07 04:23:12;;;;;;;18.02;14.95;;;11.50;99.90;;;;;;5040354;28;20040;-45
2021/09/07 04:25:38;;;;;;;18.38;13.82;;;11.40;99.90;;;;;;5044559;28;20108;-48
2021/09/07 04:28:04;;;;;;;19.27;15.80;;;11.50;99.90;;;;;;5038788;28;20080;-51
2021/09/07 04:30:29;;;;;;;18.80;14.73;;;11.50;99.90;;;;;;5040431;28;20041;-48
2021/09/07 04:32:55;;;;;;;19.48;14.50;;;11.40;99.90;;;;;;5044726;28;20643;-48
2021/09/07 04:35:21;;;;;;;16.45;13.65;;;11.40;99.90;;;;;;5038579;28;20033;-49
2021/09/07 04:37:46;;;;;;;16.33;12.43;;;11.40;99.90;;;;;;5044919;28;20049;-48
2021/09/07 04:40:12;;;;;;;20.63;15.30;;;11.40;99.90;;;;;;5039675;28;20548;-55
2021/09/07 04:42:39;;;;;;;18.58;13.38;;;11.30;99.90;;;;;;5044559;28;20036;-51
2021/09/07 04:45:05;;;;;;;21.30;15.45;;;11.30;99.90;;;;;;5040875;28;20025;-50
2021/09/07 04:47:31;;;;;;;18.38;14.40;;;11.40;99.90;;;;;;5038362;28;20033;-52
2021/09/07 04:49:57;;;;;;;16.67;13.23;;;11.30;99.90;;;;;;5044928;28;20139;-49
2021/09/07 04:52:22;;;;;;;19.55;15.00;;;11.30;99.90;;;;;;5038751;28;20040;-51
2021/09/07 04:54:48;;;;;;;18.95;14.20;;;11.30;99.90;;;;;;5044949;28;20025;-50
2021/09/07 04:57:13;;;;;;;17.30;14.18;;;11.30;99.90;;;;;;5039387;28;20048;-49
2021/09/07 04:59:39;;;;;;;18.27;14.13;;;11.30;99.90;;;;;;5044398;28;20531;-47
2021/09/07 05:02:05;;;;;;;16.63;12.57;;;11.20;99.90;;;;;;5035025;28;20021;-49
2021/09/07 05:04:30;;;;;;;17.27;12.63;;;11.20;99.90;;;;;;5043502;28;20049;-46
2021/09/07 05:06:56;;;;;;;15.85;13.05;;;11.20;99.90;;;;;;5038470;28;20489;-49
2021/09/07 05:09:21;;;;;;;18.88;13.05;;;11.20;99.90;;;;;;5045530;28;20018;-51
2021/09/07 05:11:47;;;;;;;16.55;13.75;;;11.20;99.90;;;;;;5038388;28;20013;-50
2021/09/07 05:14:12;;;;;;;14.63;11.25;;;11.20;99.90;;;;;;5040778;28;20025;-48
2021/09/07 05:16:38;;;;;;;15.23;12.55;;;11.20;99.90;;;;;;5041501;28;20049;-51
2021/09/07 05:19:03;;;;;;;12.50;11.25;;;11.20;99.90;;;;;;5021614;28;20087;-48
2021/09/07 05:21:29;;;;;;;14.98;11.20;;;11.20;99.90;;;;;;5047003;28;20033;-52
2021/09/07 05:23:55;;;;;;;14.52;11.95;;;11.20;99.90;;;;;;5038049;28;20896;-48
2021/09/07 05:26:20;;;;;;;14.32;12.27;;;11.20;99.90;;;;;;5045877;28;20441;-54
2021/09/07 05:28:46;;;;;;;14.30;11.80;;;11.20;99.90;;;;;;5036356;28;20021;-48
2021/09/07 05:31:12;;;;;;;14.93;12.10;;;11.20;99.90;;;;;;5040545;28;20025;-49
2021/09/07 05:33:37;;;;;;;13.35;11.80;;;11.20;99.90;;;;;;5041954;28;20032;-46
2021/09/07 05:36:03;;;;;;;16.70;13.73;;;11.20;99.90;;;;;;5038786;28;20048;-46
2021/09/07 05:38:28;;;;;;;15.35;13.55;;;11.20;99.90;;;;;;5043846;28;20495;-51
2021/09/07 05:40:54;;;;;;;17.17;14.65;;;11.20;99.90;;;;;;5038134;28;20029;-46
2021/09/07 05:43:20;;;;;;;17.27;15.23;;;11.30;99.90;;;;;;5046109;28;20030;-50
2021/09/07 05:45:45;;;;;;;16.88;14.88;;;11.30;99.90;;;;;;5019565;28;20022;-48
2021/09/07 05:48:11;;;;;;;18.80;14.40;;;11.30;99.90;;;;;;5039958;28;20049;-46
2021/09/07 05:50:36;;;;;;;16.83;14.20;;;11.30;99.90;;;;;;5023242;28;20033;-50
2021/09/07 05:53:02;;;;;;;15.63;13.00;;;11.30;99.90;;;;;;5038287;28;20022;-51
2021/09/07 05:55:28;;;;;;;16.45;13.90;;;11.40;99.90;;;;;;5043672;28;20025;-53
2021/09/07 05:57:55;;;;;;;18.25;15.27;;;11.40;99.90;;;;;;5033863;28;20021;-46
2021/09/07 06:00:21;;;;;;;19.08;16.20;;;11.40;99.90;;;;;;5029273;28;20029;-51
2021/09/07 06:02:46;;;;;;;15.95;13.93;;;11.50;99.90;;;;;;5036408;28;20025;-52
2021/09/07 06:05:12;;;;;;;18.55;15.07;;;11.50;99.90;;;;;;5039552;28;20130;-48
2021/09/07 06:07:39;;;;;;;22.35;15.88;;;11.60;99.90;;;;;;5040426;28;20100;-49
2021/09/07 06:10:05;;;;;;;17.08;14.13;;;11.70;99.90;;;;;;5040515;28;20017;-52
2021/09/07 06:12:31;;;;;;;18.48;15.77;;;11.80;99.90;;;;;;5040841;28;20021;-51
2021/09/07 06:14:57;;;;;;;17.98;15.70;;;11.80;99.90;;;;;;5038197;28;20479;-52
2021/09/07 06:17:22;;;;;;;19.05;15.52;;;11.90;99.90;;;;;;5040912;28;20033;-47
2021/09/07 06:19:48;;;;;;;21.27;15.70;;;12.00;99.90;;;;;;5040217;28;20029;-48
2021/09/07 06:22:14;;;;;;;22.33;15.68;;;12.10;99.90;;;;;;5039690;28;20419;-51
2021/09/07 06:24:39;;;;;;;17.58;14.68;;;12.10;99.90;;;;;;5040087;28;20051;-51
2021/09/07 06:27:05;;;;;;;18.42;15.35;;;12.20;99.90;;;;;;5040377;28;20021;-45
2021/09/07 06:29:30;;;;;;;21.00;16.90;;;12.20;99.90;;;;;;5039732;28;20665;-45
2021/09/07 06:31:56;;;;;;;19.73;16.70;;;12.30;99.90;;;;;;5038354;28;20064;-47
2021/09/07 06:34:24;;;;;;;18.17;14.73;;;12.40;99.90;;;;;;5032511;28;20095;-51
2021/09/07 06:36:54;;;;;;;18.25;14.88;;;12.40;99.90;;;;;;5025374;28;20029;-45
2021/09/07 06:39:20;;;;;;;19.25;15.27;;;12.50;99.90;;;;;;5036689;28;20032;-48
2021/09/07 06:41:45;;;;;;;19.63;16.80;;;12.50;99.90;;;;;;5033686;28;20103;-49
2021/09/07 06:44:11;;;;;;;18.60;16.33;;;12.60;99.90;;;;;;5019339;28;20060;-50
2021/09/07 06:46:37;;;;;;;22.40;17.48;;;12.70;99.90;;;;;;5019974;28;20594;-48
2021/09/07 06:49:02;;;;;;;22.35;17.65;;;12.90;99.90;;;;;;5002619;28;20025;-48
2021/09/07 06:51:28;;;;;;;23.38;17.58;;;13.00;99.90;;;;;;5039890;28;20056;-53
2021/09/07 06:53:53;;;;;;;21.83;17.40;;;13.20;99.90;;;;;;5038486;28;20097;-48
2021/09/07 06:56:19;;;;;;;21.60;15.20;;;13.30;99.90;;;;;;5039790;28;20431;-47
2021/09/07 06:58:44;;;;;;;21.33;16.90;;;13.40;99.90;;;;;;5040259;28;20391;-50
2021/09/07 07:01:10;;;;;;;18.67;14.93;;;13.50;99.90;;;;;;5037590;28;20022;-52
2021/09/07 07:03:36;;;;;;;23.05;16.50;;;13.60;99.90;;;;;;5041105;28;20107;-49
2021/09/07 07:06:01;;;;;;;16.73;13.90;;;13.60;99.90;;;;;;5039126;28;20024;-51
2021/09/07 07:08:27;;;;;;;16.38;14.02;;;13.60;99.90;;;;;;5040489;28;20025;-52
2021/09/07 07:10:52;;;;;;;20.33;15.32;;;13.70;99.90;;;;;;5040276;28;20610;-52
2021/09/07 07:13:18;;;;;;;18.98;14.70;;;13.80;99.90;;;;;;5036620;28;20040;-52
2021/09/07 07:15:43;;;;;;;14.80;12.63;;;14.00;99.90;;;;;;5041294;28;20032;-47
2021/09/07 07:18:09;;;;;;;17.33;13.48;;;14.20;99.90;;;;;;5038383;28;20033;-50
2021/09/07 07:20:34;;;;;;;16.48;12.00;;;14.30;99.90;;;;;;5040636;28;20025;-47
2021/09/07 07:23:00;;;;;;;17.35;12.25;;;14.50;99.90;;;;;;5021330;28;20021;-47
2021/09/07 07:25:26;;;;;;;21.88;12.93;;;14.70;99.90;;;;;;5040128;28;20028;-52
2021/09/07 07:27:51;;;;;;;12.40;10.55;;;14.90;99.90;;;;;;5036610;28;20388;-51
2021/09/07 07:30:17;;;;;;;16.05;11.25;;;15.10;99.90;;;;;;5039020;28;20049;-51
2021/09/07 07:32:42;;;;;;;14.63;10.55;;;15.30;99.90;;;;;;5023258;28;20056;-45
2021/09/07 07:35:09;;;;;;;13.52;9.63;;;15.50;99.90;;;;;;5037800;28;20025;-47
2021/09/07 07:37:34;;;;;;;9.18;8.23;;;15.70;99.90;;;;;;5040553;28;20475;-49
2021/09/07 07:40:00;;;;;;;11.90;7.85;;;15.80;99.90;;;;;;5038735;28;20041;-49
2021/09/07 07:42:25;;;;;;;12.32;7.85;;;15.90;99.90;;;;;;5039777;28;20024;-50
2021/09/07 07:44:51;;;;;;;8.77;6.95;;;16.10;99.90;;;;;;5038970;28;20049;-48
2021/09/07 07:47:16;;;;;;;9.13;7.47;;;16.30;99.90;;;;;;5036105;28;20057;-49
2021/09/07 07:49:42;;;;;;;11.10;6.60;;;16.50;99.90;;;;;;5040648;28;20028;-51
2021/09/07 07:52:08;;;;;;;7.32;6.53;;;16.70;99.90;;;;;;5037298;28;20067;-53
2021/09/07 07:54:34;;;;;;;8.70;6.65;;;16.90;99.90;;;;;;5039718;28;20032;-48
2021/09/07 07:57:00;;;;;;;8.55;6.82;;;17.00;99.90;;;;;;5039026;28;21096;-47
2021/09/07 07:59:26;;;;;;;9.23;5.95;;;17.10;99.90;;;;;;5021853;28;20061;-50
2021/09/07 08:01:53;;;;;;;7.80;5.93;;;17.30;99.90;;;;;;5032994;28;20619;-46
2021/09/07 08:04:19;;;;;;;6.47;5.10;;;17.50;99.90;;;;;;5042800;28;20116;-53
2021/09/07 08:06:44;;;;;;;7.40;6.05;;;17.60;99.90;;;;;;5035710;28;20113;-50
2021/09/07 08:09:10;;;;;;;8.15;6.65;;;17.70;99.90;;;;;;5043800;28;20025;-49
2021/09/07 08:11:37;;;;;;;7.88;6.25;;;17.80;99.90;;;;;;5035680;28;20029;-51
2021/09/07 08:14:03;;;;;;;6.60;5.82;;;17.80;99.90;;;;;;5038550;28;20047;-51
2021/09/07 08:16:29;;;;;;;4.97;4.07;;;17.80;99.90;;;;;;5044187;28;20183;-53
2021/09/07 08:18:54;;;;;;;5.82;4.55;;;17.70;99.90;;;;;;5039598;28;20100;-52
2021/09/07 08:21:20;;;;;;;6.35;5.13;;;17.70;99.90;;;;;;5046265;28;20053;-48
2021/09/07 08:23:46;;;;;;;4.30;3.90;;;17.70;99.90;;;;;;5038894;28;20021;-49
2021/09/07 08:26:12;;;;;;;4.30;3.40;;;17.50;99.90;;;;;;5046643;28;20025;-47
2021/09/07 08:28:37;;;;;;;7.13;4.05;;;17.40;99.90;;;;;;5038017;28;20430;-49
2021/09/07 08:31:03;;;;;;;4.70;3.53;;;17.40;99.90;;;;;;5040460;28;20032;-49
2021/09/07 08:33:29;;;;;;;4.90;3.83;;;17.60;99.90;;;;;;5044053;28;20479;-49
2021/09/07 08:35:54;;;;;;;5.47;3.92;;;17.90;99.90;;;;;;5038115;28;20025;-49
2021/09/07 08:38:20;;;;;;;6.07;4.28;;;18.30;99.90;;;;;;5046677;28;20083;-49
2021/09/07 08:40:47;;;;;;;6.18;4.00;;;18.60;99.90;;;;;;5038697;28;20025;-48
2021/09/07 08:43:13;;;;;;;7.75;5.07;;;18.70;99.90;;;;;;5046354;28;20037;-48
2021/09/07 08:45:39;;;;;;;7.35;4.40;;;18.60;99.90;;;;;;5038367;28;20391;-47
2021/09/07 08:48:05;;;;;;;6.10;4.28;;;18.80;99.90;;;;;;5040292;28;20476;-48
2021/09/07 08:50:31;;;;;;;5.40;4.03;;;19.10;99.90;;;;;;5043588;28;20595;-50
2021/09/07 08:52:59;;;;;;;6.97;3.83;;;19.30;99.90;;;;;;5038728;28;20057;-52
2021/09/07 08:55:29;;;;;;;3.88;3.15;;;19.60;99.90;;;;;;5044854;28;20022;-52
2021/09/07 08:57:54;;;;;;;5.93;4.38;;;19.80;99.90;;;;;;5035414;28;20021;-51
2021/09/07 09:00:28;;;;;;;5.72;4.15;;;20.00;99.90;;;;;;5031009;28;20462;-54
2021/09/07 09:02:54;;;;;;;7.53;3.95;;;20.20;99.90;;;;;;5038259;28;20035;-52
2021/09/07 09:05:26;;;;;;;4.85;3.35;;;20.30;99.90;;;;;;5029921;28;20055;-54
2021/09/07 09:07:52;;;;;;;4.35;3.95;;;20.30;99.90;;;;;;5041803;28;20025;-51
2021/09/07 09:10:20;;;;;;;3.90;3.10;;;20.30;99.90;;;;;;5041541;28;20065;-54
2021/09/07 09:12:45;;;;;;;3.72;2.65;;;20.20;99.90;;;;;;5022226;28;20018;-54
2021/09/07 09:15:12;;;;;;;3.75;2.80;;;20.10;99.90;;;;;;5027720;28;20026;-46
2021/09/07 09:17:38;;;;;;;4.38;2.67;;;20.10;99.90;;;;;;5033462;28;20025;-47
2021/09/07 09:20:07;;;;;;;3.65;3.05;;;20.10;99.90;;;;;;5013107;28;20140;-47
2021/09/07 09:22:46;;;;;;;3.08;2.60;;;20.20;99.90;;;;;;5029562;28;20057;-53
2021/09/07 09:25:21;;;;;;;6.63;3.58;;;20.30;99.90;;;;;;5030844;28;20037;-50
2021/09/07 09:27:47;;;;;;;6.05;3.58;;;20.50;99.90;;;;;;5035133;28;20021;-50
2021/09/07 09:30:13;;;;;;;3.75;2.58;;;20.60;99.90;;;;;;5014560;28;20017;-49
2021/09/07 09:32:47;;;;;;;4.75;3.45;;;20.60;99.90;;;;;;5036138;28;20025;-51
2021/09/07 09:35:13;;;;;;;4.05;3.03;;;20.70;99.90;;;;;;5034162;28;20071;-50
2021/09/07 09:38:04;;;;;;;4.18;3.25;;;20.80;99.90;;;;;;5036592;28;20037;-50
2021/09/07 09:40:31;;;;;;;4.13;3.10;;;20.80;99.90;;;;;;5028642;28;20812;-47
2021/09/07 09:43:19;;;;;;;4.90;3.40;;;20.80;99.90;;;;;;5029379;28;20616;-50
2021/09/07 09:45:46;;;;;;;3.25;2.90;;;20.80;99.90;;;;;;5031896;28;20049;-46
2021/09/07 09:48:29;;;;;;;5.45;3.42;;;20.80;99.90;;;;;;5029726;28;20112;-48
2021/09/07 09:50:57;;;;;;;3.28;2.97;;;20.90;99.90;;;;;;5032871;28;20013;-49
2021/09/07 09:53:24;;;;;;;3.50;2.80;;;20.90;99.90;;;;;;5010556;28;20519;-48
2021/09/07 09:55:50;;;;;;;4.28;3.40;;;21.00;99.90;;;;;;5012416;28;20033;-49
2021/09/07 09:58:17;;;;;;;3.20;2.53;;;21.00;99.90;;;;;;5020227;28;20067;-49
2021/09/07 10:00:45;;;;;;;5.00;3.22;;;21.00;99.90;;;;;;5036183;28;20516;-50
2021/09/07 10:03:11;;;;;;;5.72;3.20;;;21.10;99.90;;;;;;5039023;28;20531;-48
2021/09/07 10:05:40;;;;;;;5.07;3.05;;;21.10;99.90;;;;;;5023973;28;20109;-47
2021/09/07 10:08:06;;;;;;;5.80;3.42;;;21.10;99.90;;;;;;5027915;28;20025;-50
2021/09/07 10:10:32;;;;;;;3.90;2.90;;;21.00;99.90;;;;;;5028850;28;20039;-49
2021/09/07 10:13:01;;;;;;;3.95;3.22;;;21.00;99.90;;;;;;5012039;28;20044;-55
2021/09/07 10:15:42;;;;;;;4.70;3.30;;;20.80;99.90;;;;;;5033545;28;20021;-47
2021/09/07 10:26:40;;;;;;;5.03;2.75;;;20.90;99.90;;;;;;5034476;28;20683;-47
2021/09/07 10:29:21;;;;;;;6.15;3.17;;;20.80;99.90;;;;;;5021553;28;20030;-49
2021/09/07 10:31:52;;;;;;;6.20;3.20;;;20.80;99.90;;;;;;5029145;28;20033;-53
2021/09/07 10:34:20;;;;;;;3.22;2.63;;;20.80;99.90;;;;;;5034519;28;20032;-50
2021/09/07 10:36:59;;;;;;;2.70;2.42;;;20.80;99.90;;;;;;5029267;28;20025;-47
2021/09/07 10:39:30;;;;;;;4.53;2.95;;;20.80;99.90;;;;;;5027005;28;20025;-53
2021/09/07 10:41:57;;;;;;;4.20;2.80;;;20.80;99.70;;;;;;5028637;28;20036;-48
2021/09/07 10:44:36;;;;;;;3.63;2.67;;;20.80;99.90;;;;;;5037410;28;20027;-53
2021/09/07 10:47:14;;;;;;;5.95;3.30;;;20.80;99.90;;;;;;5032374;28;20048;-48
2021/09/07 10:49:53;;;;;;;4.60;2.85;;;20.70;99.60;;;;;;5032431;28;20021;-51
2021/09/07 10:55:04;;;;;;;4.22;2.65;;;21.00;99.90;;;;;;5041041;22;20065;-49
2021/09/07 10:57:35;;;;;;;4.25;3.13;;;21.00;99.90;;;;;;5018323;28;20040;-49
2021/09/07 11:00:16;;;;;;;4.38;2.80;;;21.00;99.90;;;;;;5017926;28;20028;-51
2021/09/07 11:02:53;;;;;;;6.18;3.35;;;21.10;99.90;;;;;;5020892;28;20033;-52
2021/09/07 11:05:25;;;;;;;3.33;2.75;;;21.20;99.90;;;;;;5024123;28;20518;-50
2021/09/07 11:08:05;;;;;;;4.40;2.60;;;21.20;99.50;;;;;;5021924;28;20121;-51
2021/09/07 11:10:37;;;;;;;5.00;3.10;;;21.20;99.90;;;;;;5024813;28;20053;-48
2021/09/07 11:13:07;;;;;;;4.28;3.22;;;21.40;99.90;;;;;;5021572;28;20026;-50
2021/09/07 11:15:41;;;;;;;3.95;2.92;;;21.40;98.40;;;;;;5019388;28;20026;-50
2021/09/07 11:18:12;;;;;;;2.97;2.63;;;21.30;98.80;;;;;;5022893;28;20403;-51
2021/09/07 11:20:48;;;;;;;3.97;3.15;;;21.30;99.70;;;;;;5020459;28;20033;-51
2021/09/07 11:23:16;;;;;;;4.30;3.13;;;21.40;99.90;;;;;;5023149;28;20518;-50
2021/09/07 11:25:50;;;;;;;4.13;3.25;;;21.30;98.60;;;;;;5021670;28;20025;-52
2021/09/07 11:28:17;;;;;;;3.33;2.72;;;21.30;99.60;;;;;;5021042;28;20462;-52
2021/09/07 11:30:51;;;;;;;3.15;2.35;;;21.40;99.90;;;;;;4993998;28;20068;-54
2021/09/07 11:33:27;;;;;;;4.18;3.00;;;21.40;98.80;;;;;;5025134;28;20013;-51
2021/09/07 11:35:56;;;;;;;3.33;2.72;;;21.40;98.10;;;;;;5013539;28;20506;-52
2021/09/07 11:38:24;;;;;;;3.30;2.30;;;21.50;97.90;;;;;;5013299;28;20118;-54
2021/09/07 11:40:55;;;;;;;3.05;2.20;;;21.40;97.50;;;;;;5018452;28;20018;-52
2021/09/07 11:43:31;;;;;;;4.32;2.63;;;21.40;98.00;;;;;;5027235;28;20076;-51
2021/09/07 11:46:06;;;;;;;6.60;3.60;;;21.50;98.40;;;;;;5019061;28;20029;-50
2021/09/07 11:48:32;;;;;;;2.65;2.45;;;21.50;99.00;;;;;;5021041;28;20026;-54
2021/09/07 11:50:58;;;;;;;5.22;3.05;;;21.50;98.10;;;;;;5025277;28;20476;-51
2021/09/07 11:53:24;;;;;;;4.10;2.63;;;21.50;98.70;;;;;;5024355;28;20029;-52
2021/09/07 11:55:52;;;;;;;2.95;2.50;;;21.60;97.00;;;;;;5026819;28;20037;-51
2021/09/07 11:58:36;;;;;;;3.78;2.47;;;21.60;97.20;;;;;;5025102;28;20108;-49
2021/09/07 12:01:06;;;;;;;3.55;2.55;;;21.60;96.10;;;;;;5028312;28;20440;-54
2021/09/07 12:03:55;;;;;;;2.97;2.72;;;21.50;98.40;;;;;;5017011;28;20018;-53
2021/09/07 12:06:31;;;;;;;3.40;2.58;;;21.60;99.30;;;;;;5021039;28;20033;-48
2021/09/07 12:09:14;;;;;;;4.13;2.70;;;21.80;99.90;;;;;;5027873;28;20513;-49
2021/09/07 12:11:42;;;;;;;4.70;2.70;;;22.00;98.70;;;;;;5024840;28;20026;-48
2021/09/07 12:14:12;;;;;;;3.10;2.80;;;21.90;97.10;;;;;;5004185;28;20056;-51
2021/09/07 12:16:47;;;;;;;3.67;3.38;;;22.00;99.80;;;;;;5026451;28;20391;-51
2021/09/07 12:19:22;;;;;;;;;;;22.10;96.90;;;;;;5023769;28;20570;-49
2021/09/07 12:22:07;;;;;;;3.90;2.88;;;22.20;99.70;;;;;;5026948;28;19912;-55
2021/09/07 12:24:32;;;;;;;3.40;3.10;;;22.30;99.50;;;;;;5011852;28;20391;-52
2021/09/07 12:26:58;;;;;;;4.35;2.78;;;22.30;99.90;;;;;;5027534;28;20026;-49
2021/09/07 12:29:24;;;;;;;2.65;2.45;;;22.20;96.60;;;;;;5022171;28;20014;-54
2021/09/07 12:32:00;;;;;;;2.47;2.20;;;22.10;98.30;;;;;;5022069;28;20508;-51
2021/09/07 12:34:25;;;;;;;2.55;2.30;;;22.10;98.60;;;;;;5011122;28;20108;-50
2021/09/07 12:36:51;;;;;;;3.53;2.78;;;21.90;96.20;;;;;;5001102;28;20539;-52
2021/09/07 12:39:18;;;;;;;3.25;2.42;;;21.80;97.30;;;;;;5023557;28;20048;-53
2021/09/07 12:41:44;;;;;;;3.25;2.60;;;21.80;98.00;;;;;;5013695;28;20112;-50
2021/09/07 12:44:14;;;;;;;3.80;2.60;;;21.80;97.40;;;;;;5024711;28;20148;-51
2021/09/07 12:46:41;;;;;;;4.75;2.58;;;21.80;97.90;;;;;;5015940;28;20107;-52